Terminal Aerodrome Forecast
Issued by NWS

Home | Current Version | Previous Version | Graphics & Text | Print | Product List | Glossary On
Versions: 1 2 3 4 5 6 7 8 9 10 11 12 13 14 15 16 17 18 19 20
883
FTUS43 KICT 141126 AAC
TAFSLN
TAF AMD
KSLN 141126Z 1411/1506 10005KT P6SM VCTS SCT008 BKN100CB
      TEMPO 1411/1413 VRB15G25KT 2SM TSRA BKN070CB
     FM141400 17008KT P6SM VCSH SCT015 BKN080
     FM141600 17011KT P6SM VCSH BKN045
     FM142300 31028G37KT P6SM -SHRA VCTS BKN090CB=

USA.gov is the U.S. government's official web portal to all federal, state and local government web resources and services.